Terminal Aerodrome Forecast
Issued by NWS

Home | Current Version | Previous Version | Text Only | Print | Product List | Glossary Off
Versions: 1 2 3 4 5 6 7 8 9 10 11 12 13 14 15 16 17 18 19 20 21 22 23 24

000
FTUS43 KLOT 232000 AAA
TAFDPA
TAF AMD
KDPA 232000Z 2320/2418 21012G18KT P6SM SCT025 BKN200
     FM240000 20007KT P6SM SCT020 OVC150
     FM240900 36006KT 6SM BR VCSH OVC050
     FM241400 36013G22KT 4SM -RASN BR OVC015 PROB30 2416/2418 1SM
      -SNRA OVC008=

USA.gov is the U.S. government's official web portal to all federal, state and local government web resources and services.